createdAt,value
2016-04-26T00:00:30.234Z,85.17
2016-04-26T00:01:30.268Z,84.7
2016-04-26T00:02:30.286Z,85.55
2016-04-26T00:03:30.336Z,86.69
2016-04-26T00:04:30.355Z,86.36
2016-04-26T00:05:30.377Z,85.51
2016-04-26T00:06:30.395Z,85.61
2016-04-26T00:07:30.413Z,85.89
2016-04-26T00:08:30.462Z,86.65
2016-04-26T00:09:30.481Z,87.02
2016-04-26T00:10:30.499Z,86.65
2016-04-26T00:11:30.517Z,86.65
2016-04-26T00:12:30.567Z,86.55
2016-04-26T00:13:30.586Z,87.02
2016-04-26T00:14:30.604Z,86.93
2016-04-26T00:15:30.637Z,87.02
2016-04-26T00:16:30.672Z,87.31
2016-04-26T00:17:30.675Z,87.4
2016-04-26T00:18:30.709Z,88.92
2016-04-26T00:19:30.727Z,89.2
2016-04-26T00:20:30.761Z,89.2
2016-04-26T00:21:30.778Z,90.15
2016-04-26T00:22:30.813Z,89.39
2016-04-26T00:23:30.831Z,88.82
2016-04-26T00:24:30.709Z,88.26
2016-04-26T00:25:30.899Z,89.87
2016-04-26T00:26:30.917Z,90.53
2016-04-26T00:27:30.952Z,90.34
2016-04-26T00:28:30.969Z,90.53
2016-04-26T00:29:31.004Z,90.53
2016-04-26T00:30:30.866Z,89.49
2016-04-26T00:31:31.056Z,89.87
2016-04-26T00:32:31.074Z,90.15
2016-04-26T00:33:31.124Z,89.96
2016-04-26T00:34:31.142Z,90.34
2016-04-26T00:35:31.160Z,90.15
2016-04-26T00:36:31.194Z,89.77
2016-04-26T00:37:31.213Z,89.77
2016-04-26T00:38:31.262Z,89.77
2016-04-26T00:39:31.265Z,89.77
2016-04-26T00:40:31.299Z,89.58
2016-04-26T00:41:31.317Z,89.3
2016-04-26T00:42:31.351Z,89.58
2016-04-26T00:43:31.384Z,89.58
2016-04-26T00:44:31.419Z,89.87
2016-04-26T00:45:31.437Z,89.01
2016-04-26T00:46:31.330Z,89.01
2016-04-26T00:47:31.490Z,90.06
2016-04-26T00:48:31.508Z,88.92
2016-04-26T00:49:31.541Z,88.82
2016-04-26T00:50:31.561Z,87.88
2016-04-26T00:51:31.578Z,88.45
2016-04-26T00:52:31.612Z,87.78
2016-04-26T00:53:31.647Z,87.69
2016-04-26T00:54:31.664Z,87.4
2016-04-26T00:55:31.699Z,87.78
2016-04-26T00:56:31.732Z,87.5
2016-04-26T00:57:31.750Z,86.55
2016-04-26T00:58:31.769Z,87.12
2016-04-26T00:59:31.819Z,86.46
2016-04-26T01:00:31.852Z,87.02
2016-04-26T01:01:32.480Z,87.5
2016-04-26T01:02:31.717Z,87.5
2016-04-26T01:03:31.908Z,87.88
2016-04-26T01:04:31.927Z,86.83
2016-04-26T01:05:31.991Z,87.4
2016-04-26T01:06:31.869Z,86.93
2016-04-26T01:07:32.027Z,87.12
2016-04-26T01:08:32.062Z,86.98
2016-04-26T01:09:32.079Z,87.08
2016-04-26T01:10:32.130Z,86.41
2016-04-26T01:11:32.117Z,86.36
2016-04-26T01:12:32.150Z,86.27
2016-04-26T01:13:32.169Z,86.08
2016-04-26T01:14:32.203Z,86.22
2016-04-26T01:15:32.221Z,86.41
2016-04-26T01:16:32.334Z,86.41
2016-04-26T01:17:32.115Z,87.27
2016-04-26T01:18:32.304Z,87.36
2016-04-26T01:19:32.339Z,86.89
2016-04-26T01:20:32.357Z,86.51
2016-04-26T01:21:32.375Z,86.04
2016-04-26T01:22:32.408Z,86.41
2016-04-26T01:23:32.428Z,86.51
2016-04-26T01:24:32.461Z,86.41
2016-04-26T01:25:32.480Z,86.79
2016-04-26T01:26:32.498Z,86.98
2016-04-26T01:27:32.547Z,86.79
2016-04-26T01:28:32.566Z,87.17
2016-04-26T01:29:32.600Z,87.27
2016-04-26T01:30:32.634Z,88.21
2016-04-26T01:31:32.839Z,87.84
2016-04-26T01:32:32.686Z,87.55
2016-04-26T01:33:32.704Z,87.17
2016-04-26T01:34:32.722Z,86.89
2016-04-26T01:35:32.741Z,87.08
2016-04-26T01:36:32.775Z,87.46
2016-04-26T01:37:32.809Z,87.36
2016-04-26T01:38:32.827Z,87.74
2016-04-26T01:39:32.846Z,87.27
2016-04-26T01:40:32.880Z,87.36
2016-04-26T01:41:32.898Z,87.46
2016-04-26T01:42:32.915Z,87.65
2016-04-26T01:43:32.951Z,87.84
2016-04-26T01:44:32.984Z,87.65
2016-04-26T01:45:33.018Z,88.02
2016-04-26T01:46:33.036Z,87.74
2016-04-26T01:47:33.071Z,87.74
2016-04-26T01:48:33.089Z,87.65
2016-04-26T01:49:47.281Z,87.17
2016-04-26T01:50:33.140Z,87.46
2016-04-26T01:51:33.175Z,87.27
2016-04-26T01:52:33.192Z,87.46
2016-04-26T01:53:33.212Z,88.31
2016-04-26T01:54:33.245Z,87.17
2016-04-26T01:55:33.263Z,88.31
2016-04-26T01:56:33.282Z,88.4
2016-04-26T01:57:33.316Z,88.4
2016-04-26T01:58:33.349Z,88.21
2016-04-26T01:59:33.369Z,88.02
2016-04-26T02:00:33.386Z,88.31
2016-04-26T02:01:33.374Z,88.12
2016-04-26T02:02:33.470Z,88.12
2016-04-26T02:03:32.738Z,88.12
2016-04-26T02:04:33.491Z,88.49
2016-04-26T02:05:33.525Z,87.84
2016-04-26T02:06:33.558Z,88.12
2016-04-26T02:07:33.578Z,88.59
2016-04-26T02:08:33.611Z,88.97
2016-04-26T02:09:33.629Z,89.16
2016-04-26T02:10:33.649Z,88.87
2016-04-26T02:11:33.682Z,89.73
2016-04-26T02:12:33.699Z,89.73
2016-04-26T02:13:33.734Z,88.97
2016-04-26T02:14:33.752Z,89.25
2016-04-26T02:15:33.786Z,89.06
2016-04-26T02:16:33.664Z,90.01
2016-04-26T02:17:33.948Z,89.16
2016-04-26T02:18:33.873Z,88.97
2016-04-26T02:19:33.906Z,90.01
2016-04-26T02:20:33.909Z,90.01
2016-04-26T02:21:33.928Z,89.92
2016-04-26T02:22:33.967Z,89.63
2016-04-26T02:23:34.002Z,89.63
2016-04-26T02:24:34.021Z,90.2
2016-04-26T02:25:34.039Z,90.2
2016-04-26T02:26:34.104Z,90.11
2016-04-26T02:27:34.122Z,90.11
2016-04-26T02:28:34.172Z,90.11
2016-04-26T02:29:34.159Z,90.67
2016-04-26T02:30:34.162Z,90.39
2016-04-26T02:31:34.335Z,90.48
2016-04-26T02:32:35.136Z,90.3
2016-04-26T02:33:34.232Z,90.48
2016-04-26T02:34:34.265Z,90.3
2016-04-26T02:35:34.300Z,90.3
2016-04-26T02:36:34.318Z,90.77
2016-04-26T02:37:34.337Z,90.48
2016-04-26T02:38:34.370Z,90.11
2016-04-26T02:39:34.405Z,90.91
2016-04-26T02:40:34.423Z,90.67
2016-04-26T02:41:34.457Z,90.77
2016-04-26T02:42:34.490Z,90.39
2016-04-26T02:43:34.492Z,90.39
2016-04-26T02:44:34.528Z,90.48
2016-04-26T02:45:34.562Z,90.77
2016-04-26T02:46:34.939Z,90.67
2016-04-26T02:47:34.441Z,91.05
2016-04-26T02:48:34.617Z,91.05
2016-04-26T02:49:34.650Z,91.48
2016-04-26T02:50:34.683Z,90.77
2016-04-26T02:51:34.718Z,90.77
2016-04-26T02:52:34.737Z,90.3
2016-04-26T02:53:34.755Z,89.92
2016-04-26T02:54:34.772Z,90.2
2016-04-26T02:55:34.823Z,90.39
2016-04-26T02:56:34.840Z,90.11
2016-04-26T02:57:34.860Z,90.11
2016-04-26T02:58:34.893Z,90.3
2016-04-26T02:59:34.896Z,90.48
2016-04-26T03:00:34.946Z,90.48
2016-04-26T03:01:34.792Z,90.77
2016-04-26T03:02:35.826Z,90.48
2016-04-26T03:03:35.015Z,89.92
2016-04-26T03:04:34.879Z,90.11
2016-04-26T03:05:35.068Z,90.11
2016-04-26T03:06:35.087Z,90.39
2016-04-26T03:07:35.104Z,89.82
2016-04-26T03:08:35.139Z,90.11
2016-04-26T03:09:35.157Z,90.86
2016-04-26T03:10:35.237Z,90.3
2016-04-26T03:11:35.272Z,90.48
2016-04-26T03:12:35.087Z,90.58
2016-04-26T03:13:35.278Z,90.86
2016-04-26T03:14:35.295Z,90.96
2016-04-26T03:15:35.314Z,90.58
2016-04-26T03:16:35.347Z,90.39
2016-04-26T03:17:35.383Z,90.11
2016-04-26T03:18:35.401Z,90.39
2016-04-26T03:19:35.310Z,90.77
2016-04-26T03:20:35.453Z,90.48
2016-04-26T03:21:35.471Z,90.77
2016-04-26T03:22:35.521Z,90.34
2016-04-26T03:23:35.523Z,90.77
2016-04-26T03:24:35.542Z,90.86
2016-04-26T03:25:35.561Z,90.86
2016-04-26T03:26:35.610Z,90.3
2016-04-26T03:27:35.628Z,90.3
2016-04-26T03:28:35.662Z,90.48
2016-04-26T03:29:35.665Z,90.2
2016-04-26T03:30:35.699Z,90.2
2016-04-26T03:31:36.373Z,90.48
2016-04-26T03:32:35.751Z,90.3
2016-04-26T03:33:35.769Z,90.86
2016-04-26T03:34:35.803Z,90.3
2016-04-26T03:35:35.822Z,90.2
2016-04-26T03:36:35.855Z,90.67
2016-04-26T03:37:35.936Z,90.58
2016-04-26T03:38:35.908Z,90.48
2016-04-26T03:39:35.927Z,90.48
2016-04-26T03:40:35.960Z,89.82
2016-04-26T03:41:35.994Z,90.11
2016-04-26T03:42:36.013Z,90.44
2016-04-26T03:43:36.030Z,90.91
2016-04-26T03:44:36.065Z,90.72
2016-04-26T03:45:36.082Z,91.01
2016-04-26T03:46:36.305Z,90.82
2016-04-26T03:47:36.151Z,90.48
2016-04-26T03:48:36.184Z,90.3
2016-04-26T03:49:36.172Z,90.67
2016-04-26T03:50:36.206Z,90.39
2016-04-26T03:51:36.240Z,90.3
2016-04-26T03:52:36.259Z,90.58
2016-04-26T03:53:36.307Z,90.48
2016-04-26T03:54:36.310Z,90.34
2016-04-26T03:55:36.328Z,90.34
2016-04-26T03:56:36.394Z,90.48
2016-04-26T03:57:36.397Z,90.53
2016-04-26T03:58:36.399Z,90.06
2016-04-26T03:59:36.449Z,90.48
2016-04-26T04:00:36.451Z,90.39
2016-04-26T04:01:36.485Z,90.34
2016-04-26T04:02:37.161Z,90.48
2016-04-26T04:03:36.538Z,91.05
2016-04-26T04:04:36.571Z,90.16
2016-04-26T04:05:36.637Z,90.39
2016-04-26T04:06:36.624Z,90.48
2016-04-26T04:07:36.689Z,90.01
2016-04-26T04:08:36.677Z,90.48
2016-04-26T04:09:50.863Z,90.39
2016-04-26T04:10:36.754Z,90.39
2016-04-26T04:11:36.741Z,90.2
2016-04-26T04:12:36.759Z,90.3
2016-04-26T04:13:36.793Z,89.54
2016-04-26T04:14:36.812Z,90.39
2016-04-26T04:15:36.876Z,90.01
2016-04-26T04:16:36.864Z,89.63
2016-04-26T04:17:37.132Z,89.44
2016-04-26T04:18:36.915Z,88.78
2016-04-26T04:19:36.950Z,89.06
2016-04-26T04:20:36.968Z,88.78
2016-04-26T04:21:36.986Z,88.59
2016-04-26T04:22:37.020Z,88.68
2016-04-26T04:23:37.039Z,88.87
2016-04-26T04:24:37.073Z,89.35
2016-04-26T04:25:37.091Z,89.35
2016-04-26T04:26:37.109Z,88.97
2016-04-26T04:27:37.144Z,88.49
2016-04-26T04:28:37.177Z,88.59
2016-04-26T04:29:37.227Z,88.31
2016-04-26T04:30:37.244Z,87.93
2016-04-26T04:31:37.264Z,87.27
2016-04-26T04:32:37.298Z,87.46
2016-04-26T04:33:37.300Z,87.65
2016-04-26T04:34:37.350Z,87.46
2016-04-26T04:35:37.352Z,87.84
2016-04-26T04:36:37.371Z,87.93
2016-04-26T04:37:37.404Z,87.46
2016-04-26T04:38:37.423Z,87.65
2016-04-26T04:39:37.441Z,87.36
2016-04-26T04:40:37.507Z,87.08
2016-04-26T04:41:37.524Z,87.27
2016-04-26T04:42:37.527Z,86.98
2016-04-26T04:43:37.562Z,87.17
2016-04-26T04:44:37.595Z,86.22
2016-04-26T04:45:37.613Z,86.41
2016-04-26T04:46:37.632Z,86.7
2016-04-26T04:47:37.540Z,87.27
2016-04-26T04:48:37.668Z,87.08
2016-04-26T04:49:37.703Z,86.22
2016-04-26T04:50:37.736Z,86.32
2016-04-26T04:51:37.770Z,87.08
2016-04-26T04:52:37.789Z,87.08
2016-04-26T04:53:37.853Z,86.89
2016-04-26T04:54:37.856Z,86.32
2016-04-26T04:55:37.859Z,86.04
2016-04-26T04:56:37.721Z,85.42
2016-04-26T04:57:37.911Z,85.13
2016-04-26T04:58:37.961Z,85.51
2016-04-26T04:59:37.980Z,85.61
2016-04-26T05:00:38.013Z,85.32
2016-04-26T05:01:38.016Z,85.42
2016-04-26T05:02:38.066Z,85.61
2016-04-26T05:03:38.083Z,85.61
2016-04-26T05:04:38.118Z,85.42
2016-04-26T05:05:38.136Z,85.04
2016-04-26T05:06:38.154Z,83.9
2016-04-26T05:07:38.236Z,83.81
2016-04-26T05:08:38.253Z,83.52
2016-04-26T05:09:38.225Z,83.81
2016-04-26T05:10:38.260Z,83.52
2016-04-26T05:11:38.293Z,82.86
2016-04-26T05:12:38.327Z,83.71
2016-04-26T05:13:38.345Z,83.33
2016-04-26T05:14:38.363Z,83.52
2016-04-26T05:15:38.382Z,83.52
2016-04-26T05:16:38.415Z,83.14
2016-04-26T05:17:38.278Z,83.05
2016-04-26T05:18:38.467Z,83.24
2016-04-26T05:19:38.487Z,83.43
2016-04-26T05:20:38.521Z,83.43
2016-04-26T05:21:38.570Z,84.28
2016-04-26T05:22:38.573Z,84.09
2016-04-26T05:23:38.653Z,84.47
2016-04-26T05:24:38.625Z,84.56
2016-04-26T05:25:38.659Z,84.19
2016-04-26T05:26:38.677Z,84.19
2016-04-26T05:27:38.711Z,84.19
2016-04-26T05:28:38.745Z,84.66
2016-04-26T05:29:38.764Z,84.56
2016-04-26T05:30:38.797Z,84.94
2016-04-26T05:31:38.816Z,84.56
2016-04-26T05:32:38.990Z,84.94
2016-04-26T05:33:38.867Z,85.04
2016-04-26T05:34:38.886Z,84.66
2016-04-26T05:35:38.920Z,84.94
2016-04-26T05:36:38.938Z,84.66
2016-04-26T05:37:38.972Z,84.56
2016-04-26T05:38:38.990Z,83.43
2016-04-26T05:39:39.024Z,84.19
2016-04-26T05:40:39.058Z,83.62
2016-04-26T05:41:39.092Z,83.09
2016-04-26T05:42:39.110Z,82.43
2016-04-26T05:43:39.129Z,81.95
2016-04-26T05:44:39.163Z,82.14
2016-04-26T05:45:39.196Z,81.76
2016-04-26T05:46:39.215Z,81.95
2016-04-26T05:47:39.998Z,81.67
2016-04-26T05:48:39.282Z,81.95
2016-04-26T05:49:39.410Z,82.14
2016-04-26T05:50:39.320Z,82.24
2016-04-26T05:51:39.401Z,82.81
2016-04-26T05:52:39.387Z,82.43
2016-04-26T05:53:39.390Z,82.14
2016-04-26T05:54:39.424Z,81.86
2016-04-26T05:55:39.442Z,82.33
2016-04-26T05:56:39.480Z,81.67
2016-04-26T05:57:39.618Z,81.67
2016-04-26T05:58:39.553Z,81.76
2016-04-26T05:59:39.556Z,81.48
2016-04-26T06:00:39.715Z,80.63
2016-04-26T06:01:39.774Z,79.96
2016-04-26T06:02:39.636Z,80.53
2016-04-26T06:03:39.669Z,80.63
2016-04-26T06:04:39.688Z,80.53
2016-04-26T06:05:38.989Z,80.63
2016-04-26T06:06:39.772Z,81.57
2016-04-26T06:07:39.775Z,80.91
2016-04-26T06:08:39.793Z,80.44
2016-04-26T06:09:39.827Z,80.06
2016-04-26T06:10:39.860Z,79.39
2016-04-26T06:11:39.894Z,78.58
2016-04-26T06:12:40.335Z,78.39
2016-04-26T06:13:39.931Z,78.39
2016-04-26T06:14:39.965Z,78.02
2016-04-26T06:15:39.983Z,77.16
2016-04-26T06:16:40.018Z,77.54
2016-04-26T06:17:40.943Z,76.5
2016-04-26T06:18:40.070Z,76.78
2016-04-26T06:19:40.104Z,77.54
2016-04-26T06:20:40.153Z,77.45
2016-04-26T06:21:40.156Z,77.54
2016-04-26T06:22:40.193Z,76.97
2016-04-26T06:23:40.211Z,76.59
2016-04-26T06:24:40.293Z,76.5
2016-04-26T06:25:40.310Z,76.59
2016-04-26T06:26:40.313Z,76.12
2016-04-26T06:27:40.315Z,77.06
2016-04-26T06:28:40.334Z,77.16
2016-04-26T06:29:40.384Z,77.78
2016-04-26T06:30:40.402Z,78.54
2016-04-26T06:31:40.437Z,79.39
2016-04-26T06:32:40.454Z,80.34
2016-04-26T06:33:40.488Z,80.63
2016-04-26T06:34:40.600Z,80.63
2016-04-26T06:35:40.556Z,81.67
2016-04-26T06:36:40.575Z,82.24
2016-04-26T06:37:40.592Z,83.47
2016-04-26T06:38:40.626Z,83.56
2016-04-26T06:39:40.660Z,84.61
2016-04-26T06:40:40.679Z,84.61
2016-04-26T06:41:40.744Z,84.85
2016-04-26T06:42:40.730Z,84.75
2016-04-26T06:43:40.750Z,84.75
2016-04-26T06:44:40.861Z,85.04
2016-04-26T06:45:40.802Z,84.75
2016-04-26T06:46:40.852Z,85.04
2016-04-26T06:47:41.025Z,84.8
2016-04-26T06:48:40.888Z,84.7
2016-04-26T06:49:40.999Z,84.61
2016-04-26T06:50:40.940Z,84.51
2016-04-26T06:51:40.974Z,84.04
2016-04-26T06:52:40.992Z,84.04
2016-04-26T06:53:41.041Z,81.9
2016-04-26T06:54:41.044Z,82.09
2016-04-26T06:55:41.094Z,81.76
2016-04-26T06:56:41.159Z,82.52
2016-04-26T06:57:41.146Z,83
2016-04-26T06:58:41.211Z,83.18
2016-04-26T06:59:41.198Z,82.9
2016-04-26T07:00:41.217Z,83.18
2016-04-26T07:01:41.250Z,84.13
2016-04-26T07:02:41.112Z,84.8
2016-04-26T07:03:41.287Z,84.61
2016-04-26T07:04:41.337Z,85.08
2016-04-26T07:05:41.371Z,85.36
2016-04-26T07:06:41.437Z,86.12
2016-04-26T07:07:41.423Z,85.55
2016-04-26T07:08:41.442Z,85.7
2016-04-26T07:09:41.476Z,86.65
2016-04-26T07:10:41.494Z,87.31
2016-04-26T07:11:41.512Z,87.12
2016-04-26T07:12:41.561Z,87.12
2016-04-26T07:13:41.580Z,87.4
2016-04-26T07:14:41.598Z,88.26
2016-04-26T07:15:41.633Z,88.45
2016-04-26T07:16:41.650Z,88.45
2016-04-26T07:17:41.513Z,88.54
2016-04-26T07:18:41.719Z,88.07
2016-04-26T07:19:41.722Z,89.3
2016-04-26T07:20:41.755Z,89.3
2016-04-26T07:21:41.836Z,89.39
2016-04-26T07:22:41.687Z,89.39
2016-04-26T07:23:41.830Z,88.82
2016-04-26T07:24:41.879Z,87.21
2016-04-26T07:25:41.914Z,87.21
2016-04-26T07:26:41.917Z,87.21
2016-04-26T07:27:41.951Z,87.07
2016-04-26T07:28:41.985Z,86.5
2016-04-26T07:29:42.018Z,85.74
2016-04-26T07:30:42.021Z,85.65
2016-04-26T07:31:42.055Z,86.41
2016-04-26T07:32:41.917Z,86.03
2016-04-26T07:33:42.123Z,85.74
2016-04-26T07:34:42.141Z,85.65
2016-04-26T07:35:42.207Z,86.12
2016-04-26T07:36:42.177Z,85.65
2016-04-26T07:37:42.211Z,85.93
2016-04-26T07:38:42.262Z,85.84
2016-04-26T07:39:42.311Z,85.36
2016-04-26T07:40:42.345Z,86.12
2016-04-26T07:41:42.316Z,86.12
2016-04-26T07:42:43.616Z,86.41
2016-04-26T07:43:42.369Z,86.6
2016-04-26T07:44:42.402Z,86.31
2016-04-26T07:45:42.436Z,86.03
2016-04-26T07:46:42.454Z,85.93
2016-04-26T07:47:42.317Z,85.93
2016-04-26T07:48:42.366Z,85.65
2016-04-26T07:49:42.525Z,85.55
2016-04-26T07:50:42.560Z,85.36
2016-04-26T07:51:42.593Z,85.17
2016-04-26T07:52:42.612Z,84.99
2016-04-26T07:53:42.630Z,85.36
2016-04-26T07:54:42.663Z,84.61
2016-04-26T07:55:42.698Z,84.8
2016-04-26T07:56:42.731Z,84.51
2016-04-26T07:57:42.751Z,84.89
2016-04-26T07:58:42.769Z,85.27
2016-04-26T07:59:42.802Z,85.65
2016-04-26T08:00:42.837Z,85.55
2016-04-26T08:01:42.854Z,85.65
2016-04-26T08:02:42.919Z,85.93
2016-04-26T08:03:42.751Z,85.93
2016-04-26T08:04:42.940Z,86.5
2016-04-26T08:05:42.959Z,87.07
2016-04-26T08:06:43.008Z,86.31
2016-04-26T08:07:43.073Z,86.41
2016-04-26T08:08:43.045Z,86.03
2016-04-26T08:09:43.079Z,85.55
2016-04-26T08:10:43.098Z,85.36
2016-04-26T08:11:43.147Z,85.17
2016-04-26T08:12:43.150Z,84.61
2016-04-26T08:13:43.184Z,84.42
2016-04-26T08:14:43.217Z,84.89
2016-04-26T08:15:43.236Z,83.51
2016-04-26T08:16:43.269Z,83.13
2016-04-26T08:17:43.304Z,82.75
2016-04-26T08:18:43.322Z,81.56
2016-04-26T08:19:43.341Z,81.37
2016-04-26T08:20:43.484Z,81.62
2016-04-26T08:21:43.424Z,81.9
2016-04-26T08:22:43.489Z,81.9
2016-04-26T08:23:43.477Z,81.62
2016-04-26T08:24:43.494Z,82.47
2016-04-26T08:25:43.513Z,82.56
2016-04-26T08:26:43.531Z,83.51
2016-04-26T08:27:43.581Z,84.27
2016-04-26T08:28:43.590Z,83.7
2016-04-26T08:29:43.624Z,82.85
2016-04-26T08:30:43.645Z,83.32
2016-04-26T08:31:43.736Z,82.18
2016-04-26T08:32:43.656Z,82.66
2016-04-26T08:33:43.935Z,81.9
2016-04-26T08:34:43.948Z,81.52
2016-04-26T08:35:43.991Z,81.9
2016-04-26T08:36:44.055Z,81.52
2016-04-26T08:37:44.089Z,81.24
2016-04-26T08:38:44.122Z,81.05
2016-04-26T08:39:44.187Z,80.38
2016-04-26T08:40:44.219Z,78.77
2016-04-26T08:41:44.259Z,76.82
2016-04-26T08:42:44.298Z,75.15
2016-04-26T08:43:44.321Z,74.62
2016-04-26T08:44:44.346Z,73.76
2016-04-26T08:45:44.369Z,72.06
2016-04-26T08:46:44.405Z,71.77
2016-04-26T08:47:45.065Z,71.39
2016-04-26T08:48:45.054Z,72.25
2016-04-26T08:49:44.512Z,73.38
2016-04-26T08:50:44.595Z,73.35
2016-04-26T08:51:44.567Z,73.72
2016-04-26T08:52:44.617Z,74.68
2016-04-26T08:53:44.684Z,74.39
2016-04-26T08:54:44.688Z,73.82
2016-04-26T08:55:44.691Z,75.24
2016-04-26T08:56:44.740Z,75.91
2016-04-26T08:57:44.759Z,76.57
2016-04-26T08:58:44.779Z,75.72
2016-04-26T08:59:44.969Z,75.87
2016-04-26T09:00:44.846Z,76.15
2016-04-26T09:01:44.912Z,76.54
2016-04-26T09:02:45.476Z,76.48
2016-04-26T09:03:44.777Z,75.34
2016-04-26T09:04:44.967Z,75.4
2016-04-26T09:05:45.000Z,74.77
2016-04-26T09:06:45.035Z,75.87
2016-04-26T09:07:45.068Z,75.96
2016-04-26T09:08:45.103Z,75.24
2016-04-26T09:09:45.120Z,75.15
2016-04-26T09:10:45.154Z,74.77
2016-04-26T09:11:45.173Z,73.35
2016-04-26T09:12:45.207Z,71.86
2016-04-26T09:13:45.225Z,71.67
2016-04-26T09:14:45.259Z,70.67
2016-04-26T09:15:45.292Z,68.19
2016-04-26T09:16:45.342Z,67.25
2016-04-26T09:17:45.345Z,69.02
2016-04-26T09:18:45.645Z,70.06
2016-04-26T09:19:45.413Z,70.92
2016-04-26T09:20:45.463Z,70.44
2016-04-26T09:21:45.481Z,68.01
2016-04-26T09:22:45.531Z,67.44
2016-04-26T09:23:45.533Z,67.53
2016-04-26T09:24:45.582Z,67.82
2016-04-26T09:25:45.649Z,67.79
2016-04-26T09:26:45.619Z,67.15
2016-04-26T09:27:45.669Z,67.15
2016-04-26T09:28:45.813Z,67.63
2016-04-26T09:29:45.768Z,67.72
2016-04-26T09:30:45.787Z,67.72
2016-04-26T09:31:45.867Z,67.72
2016-04-26T09:32:46.354Z,66.01
2016-04-26T09:33:46.888Z,65.28
2016-04-26T09:34:45.876Z,65
2016-04-26T09:35:45.909Z,64.81
2016-04-26T09:36:46.007Z,64.62
2016-04-26T09:37:46.056Z,64.59
2016-04-26T09:38:46.026Z,65.63
2016-04-26T09:39:46.045Z,66.01
2016-04-26T09:40:46.095Z,66.96
2016-04-26T09:41:46.113Z,67.53
2016-04-26T09:42:46.178Z,67.53
2016-04-26T09:43:46.165Z,67.5
2016-04-26T09:44:46.184Z,68.54
2016-04-26T09:45:46.217Z,70.25
2016-04-26T09:46:46.361Z,69.87
2016-04-26T09:47:47.441Z,70.73
2016-04-26T09:48:46.366Z,71.11
2016-04-26T09:49:46.369Z,68.92
2016-04-26T09:50:46.450Z,68.83
2016-04-26T09:51:46.422Z,67.88
2016-04-26T09:52:46.455Z,68.16
2016-04-26T09:53:46.489Z,68.98
2016-04-26T09:54:46.523Z,68.98
2016-04-26T09:55:46.542Z,69.17
2016-04-26T09:56:46.574Z,69.46
2016-04-26T09:57:46.655Z,70.12
2016-04-26T09:58:46.658Z,70.12
2016-04-26T09:59:46.677Z,70.12
2016-04-26T10:00:46.868Z,70.5
2016-04-26T10:01:46.729Z,70.88
2016-04-26T10:02:46.763Z,70.88
2016-04-26T10:03:49.532Z,70.69
2016-04-26T10:04:46.799Z,70.59
2016-04-26T10:05:46.818Z,70.78
2016-04-26T10:06:46.868Z,71.64
2016-04-26T10:07:46.902Z,72.21
2016-04-26T10:08:46.920Z,72.11
2016-04-26T10:09:46.954Z,72.59
2016-04-26T10:10:46.972Z,71.92
2016-04-26T10:11:47.069Z,71.64
2016-04-26T10:12:47.071Z,72.59
2016-04-26T10:13:47.074Z,73.6
2016-04-26T10:14:47.108Z,73.72
2016-04-26T10:15:47.126Z,73.97
2016-04-26T10:16:47.175Z,73.88
2016-04-26T10:17:47.195Z,74.01
2016-04-26T10:18:47.056Z,74.01
2016-04-26T10:19:47.247Z,73.35
2016-04-26T10:20:47.281Z,72.11
2016-04-26T10:21:47.299Z,72.3
2016-04-26T10:22:47.379Z,71.45
2016-04-26T10:23:47.367Z,72.02
2016-04-26T10:24:47.386Z,71.17
2016-04-26T10:25:47.434Z,71.83
2016-04-26T10:26:47.516Z,71.92
2016-04-26T10:27:47.472Z,71.36
2016-04-26T10:28:47.505Z,69.93
2016-04-26T10:29:47.539Z,69.93
2016-04-26T10:30:47.557Z,70.31
2016-04-26T10:31:47.577Z,68.6
2016-04-26T10:32:47.625Z,68.51
2016-04-26T10:33:47.550Z,69.17
2016-04-26T10:34:47.663Z,68.79
2016-04-26T10:35:47.805Z,67.5
2016-04-26T10:36:47.729Z,67.69
2016-04-26T10:37:47.764Z,66.93
2016-04-26T10:38:47.812Z,66.17
2016-04-26T10:39:47.832Z,66.83
2016-04-26T10:40:47.943Z,67.79
2016-04-26T10:41:47.134Z,69.21
2016-04-26T10:42:47.901Z,69.78
2016-04-26T10:43:47.936Z,71.39
2016-04-26T10:44:47.986Z,73.63
2016-04-26T10:45:48.004Z,74.96
2016-04-26T10:46:48.022Z,75.91
2016-04-26T10:47:48.056Z,76.67
2016-04-26T10:48:47.997Z,78.75
2016-04-26T10:49:48.108Z,80.04
2016-04-26T10:50:48.143Z,81.27
2016-04-26T10:51:48.161Z,81.47
2016-04-26T10:52:48.194Z,82.37
2016-04-26T10:53:48.228Z,83.13
2016-04-26T10:54:48.263Z,82.94
2016-04-26T10:55:48.280Z,83.04
2016-04-26T10:56:48.315Z,82.94
2016-04-26T10:57:48.349Z,82.98
2016-04-26T10:58:48.367Z,80.65
2016-04-26T10:59:48.401Z,80.18
2016-04-26T11:00:48.435Z,78.95
2016-04-26T11:01:48.453Z,77.56
2016-04-26T11:02:48.488Z,75.42
2016-04-26T11:03:48.522Z,73.46
2016-04-26T11:04:48.540Z,70.74
2016-04-26T11:05:48.635Z,70.97
2016-04-26T11:06:48.608Z,70.83
2016-04-26T11:07:48.657Z,72.13
2016-04-26T11:08:48.707Z,73.93
2016-04-26T11:09:48.725Z,74.27
2016-04-26T11:10:48.837Z,75.28
2016-04-26T11:11:48.793Z,74.66
2016-04-26T11:12:48.826Z,75.99
2016-04-26T11:13:48.861Z,76.84
2016-04-26T11:14:48.863Z,75.67
2016-04-26T11:15:48.898Z,76.18
2016-04-26T11:16:48.962Z,73.99
2016-04-26T11:17:48.981Z,73.08
2016-04-26T11:18:48.843Z,69.94
2016-04-26T11:19:49.048Z,70.07
2016-04-26T11:20:49.129Z,69.5
2016-04-26T11:21:49.101Z,67.44
2016-04-26T11:22:49.166Z,67.16
2016-04-26T11:23:49.153Z,68.96
2016-04-26T11:24:49.219Z,68.59
2016-04-26T11:25:49.237Z,68.3
2016-04-26T11:26:49.239Z,69.46
2016-04-26T11:27:49.305Z,69.6
2016-04-26T11:28:49.355Z,68.17
2016-04-26T11:29:49.451Z,68.3
2016-04-26T11:30:49.485Z,67.73
2016-04-26T11:31:49.441Z,68.11
2016-04-26T11:32:49.536Z,67.69
2016-04-26T11:33:50.680Z,69.31
2016-04-26T11:34:49.574Z,69.94
2016-04-26T11:35:49.655Z,70.79
2016-04-26T11:36:49.626Z,71.46
2016-04-26T11:37:49.690Z,71.23
2016-04-26T11:38:49.772Z,70.61
2016-04-26T11:39:49.790Z,70.23
2016-04-26T11:40:49.777Z,69.71
2016-04-26T11:41:49.874Z,69.91
2016-04-26T11:42:49.938Z,70.04
2016-04-26T11:43:49.972Z,70.89
2016-04-26T11:44:50.240Z,70.13
2016-04-26T11:45:49.947Z,70.51
2016-04-26T11:46:50.028Z,69.62
2016-04-26T11:47:50.015Z,68.71
2016-04-26T11:48:50.159Z,67.03
2016-04-26T11:49:50.145Z,67.69
2016-04-26T11:50:50.101Z,66.46
2016-04-26T11:51:50.150Z,65.16
2016-04-26T11:52:50.184Z,64.87
2016-04-26T11:53:50.218Z,65.54
2016-04-26T11:54:50.253Z,64.94
2016-04-26T11:55:50.287Z,64.84
2016-04-26T11:56:50.320Z,65.03
2016-04-26T11:57:50.353Z,66.17
2016-04-26T11:58:50.388Z,66.17
2016-04-26T11:59:50.406Z,66.61
2016-04-26T12:00:50.455Z,65.7
2016-04-26T12:01:50.599Z,65.32
2016-04-26T12:02:50.586Z,66.14
2016-04-26T12:03:50.667Z,67.85
2016-04-26T12:04:50.654Z,68.61
2016-04-26T12:05:50.688Z,68.33
2016-04-26T12:06:50.785Z,68.23
2016-04-26T12:07:50.694Z,68.39
2016-04-26T12:08:50.758Z,68.67
2016-04-26T12:09:50.793Z,68.58
2016-04-26T12:10:50.842Z,68.01
2016-04-26T12:11:50.939Z,68.19
2016-04-26T12:12:50.848Z,67.91
2016-04-26T12:13:50.896Z,68.86
2016-04-26T12:14:50.915Z,70.44
2016-04-26T12:15:51.012Z,70.73
2016-04-26T12:16:50.983Z,72.44
2016-04-26T12:17:51.033Z,73.76
2016-04-26T12:18:51.270Z,77.24
2016-04-26T12:19:51.085Z,77.62
2016-04-26T12:20:51.165Z,79.04
2016-04-26T12:21:51.168Z,79.9
2016-04-26T12:22:51.280Z,80.18
2016-04-26T12:23:51.236Z,77.33
2016-04-26T12:24:51.301Z,77.28
2016-04-26T12:25:51.336Z,76.14
2016-04-26T12:26:51.291Z,74.43
2016-04-26T12:27:51.341Z,73.86
2016-04-26T12:28:51.375Z,74.62
2016-04-26T12:29:51.472Z,73.9
2016-04-26T12:30:51.474Z,73.8
2016-04-26T12:31:51.524Z,74.81
2016-04-26T12:32:51.495Z,75.38
2016-04-26T12:33:51.419Z,75.04
2016-04-26T12:34:51.578Z,73.14
2016-04-26T12:35:51.580Z,71.27
2016-04-26T12:36:51.616Z,72.66
2016-04-26T12:37:51.649Z,73.52
2016-04-26T12:38:51.730Z,74.18
2016-04-26T12:39:51.717Z,73.36
2016-04-26T12:40:51.751Z,70.99
2016-04-26T12:41:51.785Z,71.27
2016-04-26T12:42:51.819Z,70.95
2016-04-26T12:43:51.853Z,72.19
2016-04-26T12:44:51.902Z,72.95
2016-04-26T12:45:51.967Z,71.94
2016-04-26T12:46:51.986Z,70.61
2016-04-26T12:47:51.974Z,70
2016-04-26T12:48:51.913Z,69.46
2016-04-26T12:49:52.040Z,70.04
2016-04-26T12:50:52.138Z,68.42
2016-04-26T12:51:52.171Z,68.61
2016-04-26T12:52:52.190Z,68.71
2016-04-26T12:53:52.239Z,67.88
2016-04-26T12:54:52.211Z,67.88
2016-04-26T12:55:52.292Z,67.69